GCLP Airport Information

Runway Information
Runway 03R Length 10171 ft width 148 ft
Elevation 69 ft Threshold ft Heading 22
Runway 21L Length 10171 ft Width 148 ft
Elevation 27 ft Threshold ft Heading 202
Runway 03L Length 10171 ft width 148 ft
Elevation 78 ft Threshold ft Heading 22
Runway 21R Length 10171 ft Width 148 ft
Elevation 33 ft Threshold ft Heading 202
Airport Frequencies
Type APP Name APP Frequency 120.9 MHZ
Type ATIS Name ATIS Frequency 118.6 MHZ
Type GND Name GND Frequency 121.7 MHZ
Type TWR Name TWR Frequency 118.3 MHZ
Airport Navaids
Type VOR-DME Name Gran Canaria Frequency 112900 KHZ
Type VOR-DME Name Gran Canaria Frequency 115000 KHZ
Type TACAN Name Gran Canaria Frequency 115600 KHZ
Type NDB Name Gran Canaria Frequency 365 KHZ
Airport Weather Information & NOTAM
ADDS - METARS form results

(2108 UTC 05 July 2022)
Data provider http://aviationweather.gov/metar/data/
 
METAR text: GCLP 052100Z 36022KT 9999 BKN025 22/16 Q1020 WS ALL RWY NOSIG
Conditions at: GCLP (LAS PALMAS/GANDO, ES) observed 2100 UTC 05 July 2022
Temperature: 22.0°C (72°F)
Dewpoint: 16.0°C (61°F) [RH = 69%]
Pressure (altimeter): 30.12 inches Hg (1020.0 mb)
Winds: from the N (360 degrees) at 25 MPH (22 knots; 11.3 m/s)
Visibility: 6 or more miles (10+ km)
Ceiling: 2500 feet AGL
Clouds: broken clouds at 2500 feet AGL
Weather: no significant weather observed at this time

METAR text: GCLP 052030Z 01025KT 9999 SCT025 22/16 Q1019 WS ALL RWY NOSIG
Conditions at: GCLP (LAS PALMAS/GANDO, ES) observed 2030 UTC 05 July 2022
Temperature: 22.0°C (72°F)
Dewpoint: 16.0°C (61°F) [RH = 69%]
Pressure (altimeter): 30.09 inches Hg (1019.0 mb)
Winds: from the N (10 degrees) at 29 MPH (25 knots; 12.9 m/s)
Visibility: 6 or more miles (10+ km)
Ceiling: at least 12,000 feet AGL
Clouds: scattered clouds at 2500 feet AGL
Weather: no significant weather observed at this time

Forecast for: GCLP (LAS PALMAS/GANDO, ES)
Text: TAF GCLP 052000Z 0521/0621 01025KT 9999 FEW030 TX26/0614Z TN20/0606Z
Forecast period: 2100 UTC 05 July 2022 to 2100 UTC 06 July 2022
Forecast type: FROM: standard forecast or significant change
Winds: from the N (10 degrees) at 29 MPH (25 knots; 12.9 m/s)
Visibility: 6 or more miles (10+ km)
Ceiling: at least 12,000 feet AGL
Clouds: few clouds at 3000 feet AGL
Weather: no significant weather forecast for this period
Text: PROB30
Forecast period: 0900 to 2100 UTC 06 July 2022
Forecast type: TEMPORARY: The following changes expected for less than half the time period
Winds: from the NNE (20 degrees) at 34 MPH (30 knots; 15.4 m/s)
gusting to 46 MPH (40 knots; 20.6 m/s)
Visibility: missing
Ceiling: unknown
Clouds: missing
Weather: no significant weather forecast for this period